createdAt,value
2023-03-16T00:00:23.306Z,20.9
2023-03-16T00:06:16.957Z,20.9
2023-03-16T00:12:10.949Z,20.9
2023-03-16T00:17:49.416Z,20.9
2023-03-16T00:23:12.230Z,20.9
2023-03-16T00:28:34.153Z,20.9
2023-03-16T00:34:27.379Z,20.9
2023-03-16T00:40:21.064Z,20.9
2023-03-16T00:46:14.259Z,20.9
2023-03-16T00:51:36.326Z,20.8
2023-03-16T00:57:30.365Z,20.8
2023-03-16T01:03:08.251Z,20.9
2023-03-16T01:09:00.234Z,20.8
2023-03-16T01:14:06.747Z,20.8
2023-03-16T01:19:59.107Z,20.8
2023-03-16T01:25:04.831Z,20.8
2023-03-16T01:30:42.630Z,20.8
2023-03-16T01:36:36.862Z,20.8
2023-03-16T01:42:28.369Z,20.8
2023-03-16T01:47:50.488Z,20.8
2023-03-16T01:53:30.189Z,20.8
2023-03-16T01:59:21.794Z,20.8
2023-03-16T02:04:45.830Z,20.8
2023-03-16T02:10:08.126Z,20.8
2023-03-16T02:16:02.192Z,20.8
2023-03-16T02:21:40.258Z,20.9
2023-03-16T02:27:33.423Z,20.9
2023-03-16T02:33:26.497Z,21.1
2023-03-16T02:44:58.541Z,21.2
2023-03-16T02:50:36.634Z,21.3
2023-03-16T02:56:29.306Z,21.3
2023-03-16T03:02:09.202Z,21.3
2023-03-16T03:07:15.444Z,21.4
2023-03-16T03:13:08.408Z,21.5
2023-03-16T03:19:01.279Z,21.5
2023-03-16T03:24:53.465Z,21.6
2023-03-16T03:30:30.781Z,21.6
2023-03-16T03:36:24.161Z,21.6
2023-03-16T03:41:45.924Z,21.6
2023-03-16T03:47:23.824Z,21.6
2023-03-16T03:52:46.236Z,21.6
2023-03-16T03:57:54.857Z,21.6
2023-03-16T04:03:49.181Z,21.6
2023-03-16T04:09:42.263Z,21.6
2023-03-16T04:15:19.384Z,21.6
2023-03-16T04:20:57.029Z,21.6
2023-03-16T04:26:35.633Z,21.6
2023-03-16T04:31:57.183Z,21.6
2023-03-16T04:37:35.220Z,21.7
2023-03-16T04:43:13.230Z,21.7
2023-03-16T04:48:50.761Z,21.7
2023-03-16T04:54:29.017Z,21.6
2023-03-16T05:00:22.409Z,21.7
2023-03-16T05:06:20.883Z,21.7
2023-03-16T05:11:58.225Z,21.7
2023-03-16T05:17:20.186Z,21.7
2023-03-16T05:23:13.017Z,21.7
2023-03-16T05:29:05.909Z,21.7
2023-03-16T05:34:30.058Z,21.7
2023-03-16T05:40:09.749Z,21.7
2023-03-16T05:46:02.428Z,21.7
2023-03-16T05:51:41.822Z,21.7
2023-03-16T05:57:19.951Z,21.7
2023-03-16T06:03:13.518Z,21.7
2023-03-16T06:09:08.006Z,21.6
2023-03-16T06:15:00.751Z,21.6
2023-03-16T06:20:52.957Z,21.6
2023-03-16T06:26:47.540Z,21.6
2023-03-16T06:32:40.478Z,21.6
2023-03-16T06:38:35.886Z,21.5
2023-03-16T06:44:32.364Z,21.6
2023-03-16T06:50:09.650Z,21.5
2023-03-16T06:55:48.883Z,21.5
2023-03-16T07:01:41.747Z,21.5
2023-03-16T07:07:34.155Z,21.5
2023-03-16T07:13:26.991Z,21.5
2023-03-16T07:19:24.738Z,21.4
2023-03-16T07:25:18.362Z,21.4
2023-03-16T07:31:33.105Z,21.4
2023-03-16T07:37:26.720Z,21.4
2023-03-16T07:43:03.659Z,21.4
2023-03-16T07:48:41.072Z,21.4
2023-03-16T07:54:20.300Z,21.4
2023-03-16T08:00:28.886Z,21.4
2023-03-16T08:06:23.305Z,21.3
2023-03-16T08:12:19.247Z,21.3
2023-03-16T08:17:57.320Z,21.3
2023-03-16T08:24:02.274Z,21.3
2023-03-16T08:29:55.618Z,21.3
2023-03-16T08:35:34.546Z,21.3
2023-03-16T08:41:24.258Z,21.3
2023-03-16T08:47:02.886Z,21.3
2023-03-16T08:52:39.652Z,21.3
2023-03-16T08:58:43.689Z,21.3
2023-03-16T09:04:50.491Z,21.2
2023-03-16T09:10:50.956Z,21.2
2023-03-16T09:16:29.379Z,21.2
2023-03-16T09:28:19.673Z,21.2
2023-03-16T09:56:43.244Z,21.1
2023-03-16T10:02:20.713Z,21.1
2023-03-16T10:08:13.538Z,21.1
2023-03-16T10:14:06.036Z,21.1
2023-03-16T10:19:58.837Z,21.1
2023-03-16T10:25:51.064Z,21.1
2023-03-16T10:31:28.685Z,21
2023-03-16T10:37:09.212Z,21
2023-03-16T10:43:01.869Z,21
2023-03-16T10:48:57.605Z,21
2023-03-16T10:54:50.397Z,21
2023-03-16T11:00:43.236Z,21
2023-03-16T11:06:37.599Z,21
2023-03-16T11:12:39.726Z,21
2023-03-16T11:18:48.210Z,21
2023-03-16T11:24:41.726Z,21
2023-03-16T11:30:33.530Z,20.9
2023-03-16T11:36:46.026Z,20.9
2023-03-16T11:42:23.757Z,20.9
2023-03-16T11:48:15.651Z,20.9
2023-03-16T11:54:08.294Z,20.9
2023-03-16T11:59:51.924Z,20.9
2023-03-16T12:06:05.612Z,20.9
2023-03-16T12:11:45.378Z,20.9
2023-03-16T12:17:55.242Z,20.9
2023-03-16T12:23:48.142Z,20.9
2023-03-16T12:29:41.557Z,20.9
2023-03-16T12:35:19.304Z,20.8
2023-03-16T12:41:11.696Z,20.8
2023-03-16T12:47:04.577Z,20.8
2023-03-16T12:52:44.564Z,20.8
2023-03-16T12:58:22.287Z,20.8
2023-03-16T13:03:44.160Z,20.8
2023-03-16T13:09:27.160Z,20.8
2023-03-16T13:15:05.253Z,20.8
2023-03-16T13:21:02.326Z,20.8
2023-03-16T13:26:56.352Z,20.8
2023-03-16T13:32:18.442Z,20.8
2023-03-16T13:37:25.276Z,20.8
2023-03-16T13:43:06.681Z,20.7
2023-03-16T13:48:44.093Z,20.7
2023-03-16T13:54:20.879Z,20.7
2023-03-16T13:59:59.200Z,20.7
2023-03-16T14:05:36.636Z,20.7
2023-03-16T14:11:17.602Z,20.7
2023-03-16T14:17:15.643Z,20.8
2023-03-16T14:23:16.499Z,20.7
2023-03-16T14:29:09.545Z,20.7
2023-03-16T14:35:03.961Z,20.8
2023-03-16T14:40:42.187Z,20.8
2023-03-16T14:46:35.944Z,20.7
2023-03-16T14:52:14.207Z,20.8
2023-03-16T14:58:06.835Z,20.7
2023-03-16T15:04:17.719Z,20.7
2023-03-16T15:10:12.784Z,20.7
2023-03-16T15:15:50.089Z,20.7
2023-03-16T15:21:42.941Z,20.7
2023-03-16T15:27:20.123Z,20.7
2023-03-16T15:33:13.103Z,20.7
2023-03-16T15:38:50.710Z,20.7
2023-03-16T15:44:55.877Z,20.7
2023-03-16T15:50:55.076Z,20.7
2023-03-16T15:57:09.805Z,20.7
2023-03-16T16:03:03.366Z,20.6
2023-03-16T16:08:40.346Z,20.6
2023-03-16T16:14:16.263Z,20.6
2023-03-16T16:20:22.812Z,20.6
2023-03-16T16:26:00.383Z,20.6
2023-03-16T16:31:37.417Z,20.6
2023-03-16T16:36:41.219Z,20.6
2023-03-16T16:42:19.473Z,20.6
2023-03-16T16:46:56.271Z,20.6
2023-03-16T16:52:18.165Z,20.6
2023-03-16T16:57:43.358Z,20.9
2023-03-16T17:03:16.132Z,21.3
2023-03-16T17:08:39.226Z,21.6
2023-03-16T17:14:01.226Z,21.8
2023-03-16T17:19:24.803Z,22
2023-03-16T17:25:18.543Z,22.1
2023-03-16T17:30:41.243Z,22.3
2023-03-16T17:36:19.750Z,22.4
2023-03-16T17:42:03.162Z,22.6
2023-03-16T17:47:41.118Z,22.6
2023-03-16T17:53:34.561Z,22.7
2023-03-16T17:59:27.521Z,22.8
2023-03-16T18:04:52.079Z,22.8
2023-03-16T18:10:46.129Z,23
2023-03-16T18:16:08.843Z,23.2
2023-03-16T18:21:31.030Z,23.3
2023-03-16T18:27:25.866Z,23.3
2023-03-16T18:33:20.158Z,23.3
2023-03-16T18:39:13.178Z,23.4
2023-03-16T18:44:50.580Z,23.5
2023-03-16T18:50:28.965Z,23.6
2023-03-16T18:56:22.191Z,23.6
2023-03-16T19:01:44.078Z,23.7
2023-03-16T19:06:51.316Z,23.7
2023-03-16T19:12:15.289Z,23.8
2023-03-16T19:17:53.692Z,23.9
2023-03-16T19:23:31.170Z,23.9
2023-03-16T19:29:09.087Z,23.9
2023-03-16T19:34:31.411Z,23.9
2023-03-16T19:40:22.802Z,23.7
2023-03-16T19:46:16.909Z,23.6
2023-03-16T19:52:09.492Z,23.4
2023-03-16T19:58:02.686Z,23.3
2023-03-16T20:03:55.551Z,23.1
2023-03-16T20:09:49.175Z,23.1
2023-03-16T20:15:27.106Z,22.9
2023-03-16T20:20:50.359Z,22.8
2023-03-16T20:26:11.504Z,22.7
2023-03-16T20:32:04.794Z,22.6
2023-03-16T20:37:42.872Z,22.6
2023-03-16T20:43:21.704Z,22.4
2023-03-16T20:48:59.124Z,22.4
2023-03-16T20:54:20.449Z,22.3
2023-03-16T21:00:13.498Z,22.2
2023-03-16T21:06:07.159Z,22.1
2023-03-16T21:12:08.947Z,22.1
2023-03-16T21:17:32.047Z,21.9
2023-03-16T21:23:24.634Z,21.7
2023-03-16T21:29:18.598Z,21.6
2023-03-16T21:35:11.282Z,21.4
2023-03-16T21:41:06.187Z,21.4
2023-03-16T21:46:59.806Z,21.3
2023-03-16T21:52:53.330Z,21.2
2023-03-16T22:04:23.036Z,21.1
2023-03-16T22:10:16.636Z,20.9
2023-03-16T22:15:54.552Z,20.9
2023-03-16T22:21:47.438Z,20.8
2023-03-16T22:27:25.313Z,20.8
2023-03-16T22:33:02.754Z,20.7
2023-03-16T22:38:55.343Z,20.6
2023-03-16T22:44:47.761Z,20.6
2023-03-16T22:50:25.255Z,20.6
2023-03-16T22:56:18.708Z,20.4
2023-03-16T23:02:12.294Z,20.4
2023-03-16T23:08:05.986Z,20.4
2023-03-16T23:13:45.477Z,20.3
2023-03-16T23:19:51.758Z,20.3
2023-03-16T23:25:52.589Z,20.3
2023-03-16T23:31:30.263Z,20.3
2023-03-16T23:37:08.139Z,20.2
2023-03-16T23:42:45.341Z,20.2
2023-03-16T23:48:22.948Z,20.1
2023-03-16T23:54:00.685Z,20.1
2023-03-16T23:59:37.336Z,20.1
